Private Wetterstation Sandau
Wetterdaten: Mittwoch, 05.12.2012
Datum Zeit Temp. A. Feuchte A. Luftdruck Regen Wind Richtung Richtung Taupunkt Windchill
05.12.2012 00:01 1,3 C 91 % 994,7 hPa 0,0 l/m 9,0 km/h (2 Bft) NW 315 -0,0 C -1,5 C
05.12.2012 00:06 1,3 C 91 % 994,5 hPa 0,0 l/m 13,3 km/h (3 Bft) W-NW 292 -0,0 C -2,5 C
05.12.2012 00:11 1,3 C 91 % 994,6 hPa 0,0 l/m 4,0 km/h (1 Bft) W-NW 292 -0,0 C 1,3 C
05.12.2012 00:16 1,3 C 91 % 994,7 hPa 0,0 l/m 8,3 km/h (2 Bft) W 270 -0,0 C -1,3 C
05.12.2012 00:21 1,3 C 91 % 994,7 hPa 0,0 l/m 13,7 km/h (3 Bft) W-NW 292 -0,0 C -2,6 C
05.12.2012 00:26 1,3 C 91 % 994,8 hPa 0,0 l/m 7,2 km/h (2 Bft) W 270 -0,0 C -1,0 C
05.12.2012 00:31 1,3 C 91 % 994,9 hPa 0,0 l/m 9,7 km/h (2 Bft) W-NW 292 -0,0 C -1,7 C
05.12.2012 00:36 1,3 C 91 % 994,7 hPa 0,0 l/m 6,8 km/h (2 Bft) W-NW 292 -0,0 C -0,8 C
05.12.2012 00:41 1,3 C 91 % 994,8 hPa 0,0 l/m 9,4 km/h (2 Bft) W-NW 292 -0,0 C -1,6 C
05.12.2012 00:46 1,3 C 91 % 994,8 hPa 0,0 l/m 7,2 km/h (2 Bft) W-NW 292 -0,0 C -1,0 C
05.12.2012 00:51 1,3 C 91 % 994,9 hPa 0,0 l/m 12,6 km/h (3 Bft) NW 315 -0,0 C -2,4 C
05.12.2012 00:56 1,3 C 91 % 995,1 hPa 0,0 l/m 9,0 km/h (2 Bft) N-NW 337 -0,0 C -1,5 C
05.12.2012 01:01 1,3 C 91 % 995,3 hPa 0,0 l/m 16,6 km/h (3 Bft) NW 315 -0,0 C -3,1 C
05.12.2012 01:06 1,2 C 91 % 995,1 hPa 0,0 l/m 17,3 km/h (3 Bft) NW 315 -0,1 C -3,3 C
05.12.2012 01:11 1,2 C 91 % 995,2 hPa 0,0 l/m 10,1 km/h (2 Bft) N-NW 337 -0,1 C -1,9 C
05.12.2012 01:16 1,1 C 91 % 995,4 hPa 0,0 l/m 5,4 km/h (1 Bft) W-NW 292 -0,2 C -0,5 C
05.12.2012 01:21 1,0 C 91 % 995,4 hPa 0,0 l/m 9,7 km/h (2 Bft) W-NW 292 -0,3 C -2,0 C
05.12.2012 01:26 0,9 C 91 % 995,4 hPa 0,0 l/m 10,4 km/h (2 Bft) NW 315 -0,4 C -2,3 C
05.12.2012 01:31 0,9 C 91 % 995,5 hPa 0,0 l/m 7,6 km/h (2 Bft) N-NW 337 -0,4 C -1,6 C
05.12.2012 01:36 0,9 C 91 % 995,5 hPa 0,0 l/m 9,7 km/h (2 Bft) W-NW 292 -0,4 C -2,2 C
05.12.2012 01:41 0,8 C 91 % 995,4 hPa 0,0 l/m 8,3 km/h (2 Bft) W-NW 292 -0,5 C -1,9 C
05.12.2012 01:46 0,8 C 91 % 995,6 hPa 0,0 l/m 5,4 km/h (1 Bft) W-NW 292 -0,5 C -0,9 C
05.12.2012 01:51 0,8 C 91 % 995,7 hPa 0,0 l/m 14,0 km/h (3 Bft) W 270 -0,5 C -3,2 C
05.12.2012 01:56 0,8 C 91 % 995,8 hPa 0,0 l/m 11,2 km/h (2 Bft) NW 315 -0,5 C -2,7 C
05.12.2012 02:01 0,8 C 91 % 995,9 hPa 0,0 l/m 6,5 km/h (2 Bft) W-NW 292 -0,5 C -1,3 C
05.12.2012 02:06 0,8 C 91 % 995,8 hPa 0,0 l/m 5,0 km/h (1 Bft) W 270 -0,5 C -0,7 C
05.12.2012 02:11 0,8 C 91 % 995,8 hPa 0,0 l/m 5,8 km/h (2 Bft) W-NW 292 -0,5 C -1,0 C
05.12.2012 02:16 0,8 C 91 % 995,9 hPa 0,0 l/m 6,5 km/h (2 Bft) W-NW 292 -0,5 C -1,3 C
05.12.2012 02:21 0,7 C 91 % 996,0 hPa 0,0 l/m 13,0 km/h (3 Bft) N-NW 337 -0,6 C -3,2 C
05.12.2012 02:26 0,7 C 91 % 995,9 hPa 0,0 l/m 11,2 km/h (2 Bft) W-NW 292 -0,6 C -2,8 C
05.12.2012 02:31 0,7 C 92 % 996,0 hPa 0,0 l/m 13,0 km/h (3 Bft) NW 315 -0,4 C -3,2 C
05.12.2012 02:36 0,7 C 92 % 996,0 hPa 0,0 l/m 19,1 km/h (3 Bft) W-NW 292 -0,4 C -4,2 C
05.12.2012 02:41 0,6 C 92 % 996,1 hPa 0,0 l/m 10,8 km/h (2 Bft) NW 315 -0,5 C -2,8 C
05.12.2012 02:46 0,6 C 91 % 996,2 hPa 0,0 l/m 11,5 km/h (2 Bft) W-NW 292 -0,7 C -3,0 C
05.12.2012 02:51 0,6 C 91 % 996,1 hPa 0,0 l/m 6,5 km/h (2 Bft) W-NW 292 -0,7 C -1,5 C
05.12.2012 02:56 0,6 C 91 % 996,3 hPa 0,0 l/m 7,6 km/h (2 Bft) W-NW 292 -0,7 C -1,9 C
05.12.2012 03:01 0,5 C 91 % 996,3 hPa 0,0 l/m 17,3 km/h (3 Bft) NW 315 -0,8 C -4,2 C
05.12.2012 03:06 0,5 C 91 % 996,4 hPa 0,0 l/m 16,6 km/h (3 Bft) N-NW 337 -0,8 C -4,1 C
05.12.2012 03:11 0,4 C 91 % 996,5 hPa 0,0 l/m 18,7 km/h (3 Bft) W-NW 292 -0,9 C -4,5 C
05.12.2012 03:16 0,4 C 91 % 996,4 hPa 0,0 l/m 9,0 km/h (2 Bft) NW 315 -0,9 C -2,6 C
05.12.2012 03:21 0,4 C 91 % 996,4 hPa 0,0 l/m 8,3 km/h (2 Bft) W-NW 292 -0,9 C -2,4 C
05.12.2012 03:26 0,4 C 91 % 996,5 hPa 0,0 l/m 19,4 km/h (3 Bft) W-NW 292 -0,9 C -4,6 C
05.12.2012 03:31 0,4 C 91 % 996,6 hPa 0,0 l/m 9,4 km/h (2 Bft) NW 315 -0,9 C -2,7 C
05.12.2012 03:36 0,4 C 91 % 996,7 hPa 0,0 l/m 13,0 km/h (3 Bft) NW 315 -0,9 C -3,5 C
05.12.2012 03:41 0,4 C 91 % 996,7 hPa 0,0 l/m 9,4 km/h (2 Bft) N-NW 337 -0,9 C -2,7 C
05.12.2012 03:46 0,4 C 91 % 996,7 hPa 0,0 l/m 4,7 km/h (1 Bft) N-NW 337 -0,9 C -1,0 C
05.12.2012 03:51 0,3 C 91 % 996,8 hPa 0,0 l/m 10,4 km/h (2 Bft) NW 315 -1,0 C -3,1 C
05.12.2012 03:56 0,3 C 91 % 996,5 hPa 0,0 l/m 20,2 km/h (4 Bft) W-NW 292 -1,0 C -4,9 C
05.12.2012 04:01 0,3 C 91 % 996,7 hPa 0,0 l/m 8,3 km/h (2 Bft) W 270 -1,0 C -2,5 C
05.12.2012 04:06 0,2 C 91 % 996,6 hPa 0,0 l/m 10,8 km/h (2 Bft) W-NW 292 -1,1 C -3,3 C
05.12.2012 04:11 0,1 C 91 % 996,7 hPa 0,0 l/m 6,5 km/h (2 Bft) NW 315 -1,2 C -2,1 C
05.12.2012 04:16 0,1 C 90 % 996,8 hPa 0,0 l/m 7,2 km/h (2 Bft) NW 315 -1,3 C -2,4 C
05.12.2012 04:21 0,1 C 90 % 996,7 hPa 0,0 l/m 9,4 km/h (2 Bft) W-NW 292 -1,3 C -3,0 C
05.12.2012 04:26 -0,1 C 90 % 996,8 hPa 0,0 l/m 13,7 km/h (3 Bft) N-NW 337 -1,5 C -4,3 C
05.12.2012 04:31 -0,1 C 90 % 996,8 hPa 0,0 l/m 4,7 km/h (1 Bft) NW 315 -1,5 C -1,6 C
05.12.2012 04:36 -0,1 C 90 % 997,0 hPa 0,0 l/m 9,7 km/h (2 Bft) NW 315 -1,5 C -3,4 C
05.12.2012 04:41 -0,1 C 90 % 997,0 hPa 0,0 l/m 4,0 km/h (1 Bft) W-NW 292 -1,5 C -0,1 C
05.12.2012 04:46 -0,1 C 90 % 997,0 hPa 0,0 l/m 11,5 km/h (2 Bft) W-NW 292 -1,5 C -3,8 C
05.12.2012 04:51 -0,1 C 90 % 997,2 hPa 0,0 l/m 3,2 km/h (1 Bft) NW 315 -1,5 C -0,1 C
05.12.2012 04:56 -0,1 C 90 % 997,1 hPa 0,0 l/m 20,5 km/h (4 Bft) W-NW 292 -1,5 C -5,4 C
05.12.2012 05:01 -0,2 C 89 % 997,2 hPa 0,0 l/m 6,8 km/h (2 Bft) W 270 -1,8 C -2,6 C
05.12.2012 05:06 -0,2 C 89 % 997,1 hPa 0,0 l/m 10,1 km/h (2 Bft) NW 315 -1,8 C -3,6 C
05.12.2012 05:11 -0,2 C 88 % 997,2 hPa 0,0 l/m 11,5 km/h (2 Bft) NW 315 -1,9 C -3,9 C
05.12.2012 05:16 -0,2 C 88 % 997,3 hPa 0,0 l/m 7,9 km/h (2 Bft) W 270 -1,9 C -2,9 C
05.12.2012 05:21 -0,2 C 87 % 997,5 hPa 0,0 l/m 16,9 km/h (3 Bft) NW 315 -2,1 C -5,0 C
05.12.2012 05:26 -0,3 C 87 % 997,5 hPa 0,0 l/m 12,2 km/h (2 Bft) W-NW 292 -2,2 C -4,2 C
05.12.2012 05:31 -0,4 C 88 % 997,5 hPa 0,0 l/m 11,2 km/h (2 Bft) W-NW 292 -2,1 C -4,1 C
05.12.2012 05:36 -0,4 C 87 % 997,5 hPa 0,0 l/m 7,6 km/h (2 Bft) W 270 -2,3 C -3,1 C
05.12.2012 05:41 -0,4 C 87 % 997,5 hPa 0,0 l/m 9,7 km/h (2 Bft) N-NW 337 -2,3 C -3,7 C
05.12.2012 05:46 -0,5 C 86 % 997,9 hPa 0,0 l/m 9,7 km/h (2 Bft) W-NW 292 -2,5 C -3,8 C
05.12.2012 05:51 -0,6 C 86 % 997,7 hPa 0,0 l/m 12,6 km/h (3 Bft) W 270 -2,6 C -4,7 C
05.12.2012 05:56 -0,7 C 86 % 997,8 hPa 0,0 l/m 23,8 km/h (4 Bft) NW 315 -2,7 C -6,7 C
05.12.2012 06:01 -0,8 C 86 % 997,8 hPa 0,0 l/m 8,3 km/h (2 Bft) NW 315 -2,8 C -3,8 C
05.12.2012 06:06 -0,9 C 86 % 998,0 hPa 0,0 l/m 10,8 km/h (2 Bft) W-NW 292 -2,9 C -4,6 C
05.12.2012 06:11 -0,9 C 86 % 998,0 hPa 0,0 l/m 14,8 km/h (3 Bft) N-NW 337 -2,9 C -5,5 C
05.12.2012 06:16 -1,0 C 85 % 998,1 hPa 0,0 l/m 14,0 km/h (3 Bft) NW 315 -3,2 C -5,4 C
05.12.2012 06:21 -1,1 C 85 % 998,1 hPa 0,0 l/m 20,5 km/h (4 Bft) W-NW 292 -3,3 C -6,7 C
05.12.2012 06:26 -1,2 C 84 % 998,3 hPa 0,0 l/m 16,6 km/h (3 Bft) NW 315 -3,5 C -6,2 C
05.12.2012 06:31 -1,4 C 85 % 998,5 hPa 0,0 l/m 14,8 km/h (3 Bft) N-NW 337 -3,6 C -6,1 C
05.12.2012 06:36 -1,6 C 84 % 998,5 hPa 0,0 l/m 12,2 km/h (2 Bft) W-NW 292 -3,9 C -5,8 C
05.12.2012 06:41 -1,7 C 83 % 998,6 hPa 0,0 l/m 8,6 km/h (2 Bft) N-NW 337 -4,2 C -4,9 C
05.12.2012 06:46 -1,9 C 84 % 998,6 hPa 0,0 l/m 9,7 km/h (2 Bft) W-NW 292 -4,2 C -5,5 C
05.12.2012 06:51 -1,9 C 84 % 998,6 hPa 0,0 l/m 15,8 km/h (3 Bft) NW 315 -4,2 C -6,9 C
05.12.2012 06:56 -2,0 C 84 % 998,7 hPa 0,0 l/m 7,6 km/h (2 Bft) W 270 -4,3 C -4,9 C
05.12.2012 07:01 -2,1 C 85 % 998,8 hPa 0,0 l/m 4,0 km/h (1 Bft) W-NW 292 -4,3 C -2,1 C
05.12.2012 07:06 -2,1 C 85 % 998,9 hPa 0,0 l/m 8,3 km/h (2 Bft) N-NW 337 -4,3 C -5,3 C
05.12.2012 07:11 -2,1 C 85 % 999,1 hPa 0,0 l/m 11,2 km/h (2 Bft) NW 315 -4,3 C -6,1 C
05.12.2012 07:16 -2,1 C 85 % 999,1 hPa 0,0 l/m 20,2 km/h (4 Bft) W-NW 292 -4,3 C -7,9 C
05.12.2012 07:21 -2,1 C 85 % 999,1 hPa 0,0 l/m 10,8 km/h (2 Bft) NW 315 -4,3 C -6,0 C
05.12.2012 07:26 -2,1 C 85 % 999,3 hPa 0,0 l/m 20,5 km/h (4 Bft) NW 315 -4,3 C -8,0 C
05.12.2012 07:31 -2,2 C 84 % 999,2 hPa 0,0 l/m 9,4 km/h (2 Bft) W-NW 292 -4,5 C -5,8 C
05.12.2012 07:36 -2,4 C 84 % 999,4 hPa 0,0 l/m 6,1 km/h (2 Bft) NW 315 -4,7 C -4,8 C
05.12.2012 07:41 -2,4 C 84 % 999,4 hPa 0,0 l/m 12,2 km/h (2 Bft) W-NW 292 -4,7 C -6,8 C
05.12.2012 07:46 -2,6 C 84 % 999,4 hPa 0,0 l/m 13,0 km/h (3 Bft) NW 315 -4,9 C -7,2 C
05.12.2012 07:51 -2,6 C 85 % 999,5 hPa 0,0 l/m 11,5 km/h (2 Bft) W-NW 292 -4,8 C -6,8 C
05.12.2012 07:56 -2,7 C 85 % 999,7 hPa 0,0 l/m 10,8 km/h (2 Bft) N-NW 337 -4,9 C -6,8 C
05.12.2012 08:01 -2,8 C 85 % 999,6 hPa 0,0 l/m 10,8 km/h (2 Bft) W-NW 292 -5,0 C -6,9 C
05.12.2012 08:06 -2,9 C 85 % 999,9 hPa 0,0 l/m 20,5 km/h (4 Bft) W 270 -5,1 C -9,0 C
05.12.2012 08:11 -2,9 C 85 % 999,9 hPa 0,0 l/m 5,8 km/h (2 Bft) W-NW 292 -5,1 C -5,3 C
05.12.2012 08:16 -2,9 C 85 % 999,9 hPa 0,0 l/m 14,8 km/h (3 Bft) NW 315 -5,1 C -8,0 C
05.12.2012 08:21 -3,0 C 85 % 999,8 hPa 0,0 l/m 6,1 km/h (2 Bft) W-NW 292 -5,2 C -5,5 C
05.12.2012 08:26 -3,1 C 85 % 999,8 hPa 0,0 l/m 8,3 km/h (2 Bft) NW 315 -5,3 C -6,5 C
05.12.2012 08:31 -3,1 C 85 % 1000,0 hPa 0,0 l/m 10,4 km/h (2 Bft) NW 315 -5,3 C -7,1 C
05.12.2012 08:36 -3,1 C 85 % 999,7 hPa 0,0 l/m 5,4 km/h (1 Bft) N-NW 337 -5,3 C -5,3 C
05.12.2012 08:41 -3,1 C 85 % 999,9 hPa 0,0 l/m 10,4 km/h (2 Bft) N-NW 337 -5,3 C -7,1 C
05.12.2012 08:46 -3,1 C 84 % 1000,0 hPa 0,0 l/m 9,0 km/h (2 Bft) W-NW 292 -5,4 C -6,7 C
05.12.2012 08:51 -3,2 C 84 % 1000,3 hPa 0,0 l/m 13,7 km/h (3 Bft) N 360 -5,5 C -8,1 C
05.12.2012 08:56 -3,2 C 84 % 1000,4 hPa 0,0 l/m 13,7 km/h (3 Bft) NW 315 -5,5 C -8,1 C
05.12.2012 09:01 -3,1 C 84 % 1000,4 hPa 0,0 l/m 22,3 km/h (4 Bft) W-NW 292 -5,4 C -9,5 C
05.12.2012 09:06 -3,2 C 84 % 1000,4 hPa 0,0 l/m 10,4 km/h (2 Bft) W 270 -5,5 C -7,3 C
05.12.2012 09:11 -3,2 C 84 % 1000,4 hPa 0,0 l/m 12,2 km/h (2 Bft) NW 315 -5,5 C -7,7 C
05.12.2012 09:16 -3,2 C 83 % 1000,6 hPa 0,0 l/m 10,4 km/h (2 Bft) NW 315 -5,7 C -7,3 C
05.12.2012 09:21 -3,2 C 83 % 1000,4 hPa 0,0 l/m 17,6 km/h (3 Bft) NW 315 -5,7 C -8,9 C
05.12.2012 09:26 -3,2 C 83 % 1000,7 hPa 0,0 l/m 10,4 km/h (2 Bft) NW 315 -5,7 C -7,3 C
05.12.2012 09:31 -3,2 C 83 % 1000,8 hPa 0,0 l/m 7,2 km/h (2 Bft) NW 315 -5,7 C -6,2 C
05.12.2012 09:36 -3,2 C 83 % 1000,8 hPa 0,0 l/m 8,3 km/h (2 Bft) NW 315 -5,7 C -6,6 C
05.12.2012 09:41 -3,2 C 83 % 1001,0 hPa 0,0 l/m 15,1 km/h (3 Bft) W-NW 292 -5,7 C -8,4 C
05.12.2012 09:46 -3,2 C 83 % 1001,0 hPa 0,0 l/m 8,6 km/h (2 Bft) W-NW 292 -5,7 C -6,7 C
05.12.2012 09:51 -3,2 C 82 % 1001,0 hPa 0,0 l/m 11,2 km/h (2 Bft) N-NW 337 -5,8 C -7,5 C
05.12.2012 09:56 -3,1 C 82 % 1001,0 hPa 0,0 l/m 6,1 km/h (2 Bft) N-NW 337 -5,7 C -5,6 C
05.12.2012 10:01 -3,1 C 82 % 1001,1 hPa 0,0 l/m 8,6 km/h (2 Bft) W-NW 292 -5,7 C -6,6 C
05.12.2012 10:06 -3,1 C 82 % 1001,1 hPa 0,0 l/m 7,2 km/h (2 Bft) NW 315 -5,7 C -6,1 C
05.12.2012 10:11 -3,1 C 82 % 1001,2 hPa 0,0 l/m 18,4 km/h (3 Bft) NW 315 -5,7 C -8,9 C
05.12.2012 10:16 -3,1 C 81 % 1001,2 hPa 0,0 l/m 3,6 km/h (1 Bft) W 270 -5,9 C -3,1 C
05.12.2012 10:21 -3,1 C 81 % 1001,4 hPa 0,0 l/m 4,3 km/h (1 Bft) NW 315 -5,9 C -3,1 C
05.12.2012 10:26 -3,1 C 82 % 1001,3 hPa 0,0 l/m 7,6 km/h (2 Bft) NW 315 -5,7 C -6,2 C
05.12.2012 10:31 -3,1 C 81 % 1001,3 hPa 0,0 l/m 5,4 km/h (1 Bft) W-NW 292 -5,9 C -5,3 C
05.12.2012 10:36 -3,2 C 82 % 1001,6 hPa 0,0 l/m 15,1 km/h (3 Bft) NW 315 -5,8 C -8,4 C
05.12.2012 10:41 -3,1 C 82 % 1001,5 hPa 0,0 l/m 7,9 km/h (2 Bft) NW 315 -5,7 C -6,3 C
05.12.2012 10:46 -3,1 C 82 % 1001,5 hPa 0,0 l/m 8,6 km/h (2 Bft) NW 315 -5,7 C -6,6 C
05.12.2012 10:51 -3,1 C 82 % 1001,7 hPa 0,0 l/m 16,9 km/h (3 Bft) W-NW 292 -5,7 C -8,6 C
05.12.2012 10:56 -3,2 C 81 % 1001,7 hPa 0,0 l/m 8,3 km/h (2 Bft) W-NW 292 -6,0 C -6,6 C
05.12.2012 11:01 -3,1 C 82 % 1001,6 hPa 0,0 l/m 10,1 km/h (2 Bft) W-NW 292 -5,7 C -7,0 C
05.12.2012 11:06 -3,1 C 82 % 1001,7 hPa 0,0 l/m 5,0 km/h (1 Bft) W-NW 292 -5,7 C -5,1 C
05.12.2012 11:11 -3,1 C 82 % 1001,8 hPa 0,0 l/m 3,6 km/h (1 Bft) W-NW 292 -5,7 C -3,1 C
05.12.2012 11:16 -3,1 C 82 % 1001,8 hPa 0,0 l/m 4,0 km/h (1 Bft) W 270 -5,7 C -3,1 C
05.12.2012 11:21 -3,1 C 82 % 1001,8 hPa 0,0 l/m 9,7 km/h (2 Bft) NW 315 -5,7 C -6,9 C
05.12.2012 11:26 -3,0 C 82 % 1001,8 hPa 0,0 l/m 8,3 km/h (2 Bft) NW 315 -5,6 C -6,4 C
05.12.2012 11:31 -2,9 C 82 % 1001,8 hPa 0,0 l/m 5,0 km/h (1 Bft) W-NW 292 -5,5 C -4,9 C
05.12.2012 11:36 -2,7 C 81 % 1001,9 hPa 0,0 l/m 5,8 km/h (2 Bft) W-SW 247 -5,5 C -5,0 C
05.12.2012 11:41 -2,6 C 81 % 1002,0 hPa 0,0 l/m 6,8 km/h (2 Bft) W-NW 292 -5,4 C -5,3 C
05.12.2012 11:46 -2,4 C 79 % 1001,9 hPa 0,0 l/m 13,3 km/h (3 Bft) W 270 -5,5 C -7,0 C
05.12.2012 11:51 -2,4 C 79 % 1001,9 hPa 0,0 l/m 6,8 km/h (2 Bft) NW 315 -5,5 C -5,1 C
05.12.2012 11:56 -2,2 C 78 % 1001,9 hPa 0,0 l/m 9,7 km/h (2 Bft) NW 315 -5,5 C -5,9 C
05.12.2012 12:01 -2,1 C 77 % 1001,9 hPa 0,0 l/m 19,4 km/h (3 Bft) NW 315 -5,6 C -7,8 C
05.12.2012 12:06 -2,1 C 75 % 1002,0 hPa 0,0 l/m 14,8 km/h (3 Bft) W 270 -5,9 C -7,0 C
05.12.2012 12:11 -1,9 C 76 % 1002,0 hPa 0,0 l/m 7,6 km/h (2 Bft) NW 315 -5,6 C -4,8 C
05.12.2012 12:16 -1,8 C 76 % 1001,9 hPa 0,0 l/m 15,1 km/h (3 Bft) NW 315 -5,5 C -6,7 C
05.12.2012 12:21 -1,7 C 76 % 1002,0 hPa 0,0 l/m 14,4 km/h (3 Bft) NW 315 -5,4 C -6,4 C
05.12.2012 12:26 -1,6 C 75 % 1001,9 hPa 0,0 l/m 7,6 km/h (2 Bft) W-NW 292 -5,4 C -4,5 C
05.12.2012 12:31 -1,6 C 74 % 1002,0 hPa 0,0 l/m 11,5 km/h (2 Bft) W 270 -5,6 C -5,6 C
05.12.2012 12:36 -1,6 C 74 % 1001,9 hPa 0,0 l/m 8,3 km/h (2 Bft) W-SW 247 -5,6 C -4,7 C
05.12.2012 12:41 -1,6 C 73 % 1001,9 hPa 0,0 l/m 13,3 km/h (3 Bft) W 270 -5,8 C -6,0 C
05.12.2012 12:46 -1,5 C 73 % 1001,9 hPa 0,0 l/m 8,3 km/h (2 Bft) W-NW 292 -5,7 C -4,6 C
05.12.2012 12:51 -1,5 C 73 % 1001,9 hPa 0,0 l/m 5,0 km/h (1 Bft) W-NW 292 -5,7 C -3,3 C
05.12.2012 12:56 -1,5 C 73 % 1002,0 hPa 0,0 l/m 14,8 km/h (3 Bft) W-NW 292 -5,7 C -6,2 C
05.12.2012 13:01 -1,5 C 72 % 1001,8 hPa 0,0 l/m 7,6 km/h (2 Bft) NW 315 -5,9 C -4,4 C
05.12.2012 13:06 -1,4 C 72 % 1002,0 hPa 0,0 l/m 10,8 km/h (2 Bft) NW 315 -5,8 C -5,2 C
05.12.2012 13:11 -1,3 C 72 % 1002,0 hPa 0,0 l/m 12,2 km/h (2 Bft) W-NW 292 -5,7 C -5,4 C
05.12.2012 13:16 -1,2 C 72 % 1002,1 hPa 0,0 l/m 5,4 km/h (1 Bft) N-NW 337 -5,6 C -3,1 C
05.12.2012 13:21 -1,1 C 72 % 1002,1 hPa 0,0 l/m 9,7 km/h (2 Bft) NW 315 -5,5 C -4,5 C
05.12.2012 13:26 -1,1 C 71 % 1002,2 hPa 0,0 l/m 12,6 km/h (3 Bft) W-NW 292 -5,7 C -5,3 C
05.12.2012 13:31 -1,0 C 71 % 1002,0 hPa 0,0 l/m 3,6 km/h (1 Bft) W 270 -5,6 C -1,0 C
05.12.2012 13:36 -1,1 C 71 % 1002,0 hPa 0,0 l/m 10,4 km/h (2 Bft) W-NW 292 -5,7 C -4,7 C
05.12.2012 13:41 -1,0 C 71 % 1002,2 hPa 0,0 l/m 9,7 km/h (2 Bft) NW 315 -5,6 C -4,4 C
05.12.2012 13:46 -1,1 C 71 % 1002,3 hPa 0,0 l/m 5,4 km/h (1 Bft) W 270 -5,7 C -3,0 C
05.12.2012 13:51 -1,1 C 71 % 1002,0 hPa 0,0 l/m 19,1 km/h (3 Bft) S-SW 202 -5,7 C -6,5 C
05.12.2012 13:56 -1,2 C 71 % 1002,3 hPa 0,0 l/m 6,1 km/h (2 Bft) NW 315 -5,8 C -3,4 C
05.12.2012 14:01 -1,2 C 71 % 1002,3 hPa 0,0 l/m 8,6 km/h (2 Bft) W-NW 292 -5,8 C -4,3 C
05.12.2012 14:06 -1,2 C 71 % 1002,3 hPa 0,0 l/m 7,9 km/h (2 Bft) W-NW 292 -5,8 C -4,1 C
05.12.2012 14:11 -1,2 C 71 % 1002,3 hPa 0,0 l/m 5,8 km/h (2 Bft) W-NW 292 -5,8 C -3,3 C
05.12.2012 14:16 -1,3 C 72 % 1002,4 hPa 0,0 l/m 7,2 km/h (2 Bft) W-NW 292 -5,7 C -4,0 C
05.12.2012 14:21 -1,3 C 72 % 1002,6 hPa 0,0 l/m 5,0 km/h (1 Bft) W-SW 247 -5,7 C -3,1 C
05.12.2012 14:26 -1,2 C 73 % 1002,4 hPa 0,0 l/m 9,4 km/h (2 Bft) W-SW 247 -5,4 C -4,6 C
05.12.2012 14:31 -1,2 C 73 % 1002,4 hPa 0,0 l/m 4,0 km/h (1 Bft) W-SW 247 -5,4 C -1,2 C
05.12.2012 14:36 -1,2 C 74 % 1002,5 hPa 0,0 l/m 15,8 km/h (3 Bft) W 270 -5,2 C -6,0 C
05.12.2012 14:41 -1,2 C 74 % 1002,4 hPa 0,0 l/m 5,0 km/h (1 Bft) W-NW 292 -5,2 C -3,0 C
05.12.2012 14:46 -1,1 C 74 % 1002,5 hPa 0,0 l/m 5,0 km/h (1 Bft) W-SW 247 -5,1 C -2,8 C
05.12.2012 14:51 -1,2 C 74 % 1002,7 hPa 0,0 l/m 4,3 km/h (1 Bft) W 270 -5,2 C -1,2 C
05.12.2012 14:56 -1,2 C 74 % 1002,6 hPa 0,0 l/m 3,2 km/h (1 Bft) W 270 -5,2 C -1,2 C
05.12.2012 15:01 -1,4 C 74 % 1002,6 hPa 0,0 l/m 6,1 km/h (2 Bft) W 270 -5,4 C -3,7 C
05.12.2012 15:06 -1,5 C 75 % 1002,6 hPa 0,0 l/m 15,1 km/h (3 Bft) W 270 -5,3 C -6,3 C
05.12.2012 15:11 -1,6 C 75 % 1002,7 hPa 0,0 l/m 6,8 km/h (2 Bft) W 270 -5,4 C -4,2 C
05.12.2012 15:16 -1,7 C 76 % 1002,5 hPa 0,0 l/m 5,4 km/h (1 Bft) W 270 -5,4 C -3,7 C
05.12.2012 15:21 -1,7 C 76 % 1002,7 hPa 0,0 l/m 2,9 km/h (1 Bft) W-SW 247 -5,4 C -1,7 C
05.12.2012 15:26 -1,8 C 76 % 1002,7 hPa 0,0 l/m 5,0 km/h (1 Bft) W-NW 292 -5,5 C -3,6 C
05.12.2012 15:31 -1,9 C 76 % 1002,8 hPa 0,0 l/m 4,7 km/h (1 Bft) W-SW 247 -5,6 C -3,6 C
05.12.2012 15:36 -2,1 C 77 % 1002,8 hPa 0,0 l/m 2,2 km/h (1 Bft) W-SW 247 -5,6 C -2,1 C
05.12.2012 15:41 -2,1 C 77 % 1002,7 hPa 0,0 l/m 4,0 km/h (1 Bft) W-NW 292 -5,6 C -2,1 C
05.12.2012 15:46 -2,2 C 77 % 1002,8 hPa 0,0 l/m 6,5 km/h (2 Bft) W-SW 247 -5,7 C -4,8 C
05.12.2012 15:51 -2,3 C 77 % 1002,9 hPa 0,0 l/m 3,6 km/h (1 Bft) W-SW 247 -5,8 C -2,3 C
05.12.2012 15:56 -2,4 C 78 % 1002,9 hPa 0,0 l/m 1,4 km/h (1 Bft) W-SW 247 -5,7 C -2,4 C
05.12.2012 16:01 -2,4 C 78 % 1002,9 hPa 0,0 l/m 5,0 km/h (1 Bft) W-SW 247 -5,7 C -4,3 C
05.12.2012 16:06 -2,2 C 78 % 1003,0 hPa 0,0 l/m 2,5 km/h (1 Bft) W 270 -5,5 C -2,2 C
05.12.2012 16:11 -2,2 C 79 % 1002,9 hPa 0,0 l/m 2,9 km/h (1 Bft) W 270 -5,3 C -2,2 C
05.12.2012 16:16 -2,2 C 79 % 1003,0 hPa 0,0 l/m 0,0 km/h (0 Bft) W 270 -5,3 C -2,2 C
05.12.2012 16:21 -2,1 C 79 % 1003,0 hPa 0,0 l/m 3,6 km/h (1 Bft) NW 315 -5,2 C -2,1 C
05.12.2012 16:26 -2,1 C 79 % 1003,0 hPa 0,0 l/m 3,2 km/h (1 Bft) NW 315 -5,2 C -2,1 C
05.12.2012 16:31 -2,1 C 79 % 1003,1 hPa 0,0 l/m 0,0 km/h (0 Bft) W-NW 292 -5,2 C -2,1 C
05.12.2012 16:36 -2,1 C 79 % 1003,0 hPa 0,0 l/m 4,0 km/h (1 Bft) W 270 -5,2 C -2,1 C
05.12.2012 16:41 -2,1 C 79 % 1003,1 hPa 0,0 l/m 5,0 km/h (1 Bft) W 270 -5,2 C -4,0 C
05.12.2012 16:46 -1,9 C 80 % 1003,2 hPa 0,0 l/m 0,0 km/h (0 Bft) W 270 -4,9 C -1,9 C
05.12.2012 16:51 -1,9 C 80 % 1003,2 hPa 0,0 l/m 0,0 km/h (0 Bft) W-SW 247 -4,9 C -1,9 C
05.12.2012 16:56 -1,9 C 80 % 1003,1 hPa 0,0 l/m 2,2 km/h (1 Bft) W 270 -4,9 C -1,9 C
05.12.2012 17:01 -1,9 C 80 % 1003,1 hPa 0,0 l/m 6,1 km/h (2 Bft) W-SW 247 -4,9 C -4,3 C
05.12.2012 17:06 -1,9 C 80 % 1003,0 hPa 0,0 l/m 3,6 km/h (1 Bft) W 270 -4,9 C -1,9 C
05.12.2012 17:11 -1,9 C 80 % 1003,0 hPa 0,0 l/m 5,8 km/h (2 Bft) W 270 -4,9 C -4,1 C
05.12.2012 17:16 -1,9 C 80 % 1003,0 hPa 0,0 l/m 7,6 km/h (2 Bft) W 270 -4,9 C -4,8 C
05.12.2012 17:21 -2,1 C 80 % 1003,0 hPa 0,0 l/m 4,7 km/h (1 Bft) W 270 -5,1 C -3,8 C
05.12.2012 17:26 -2,1 C 80 % 1003,2 hPa 0,0 l/m 5,4 km/h (1 Bft) W 270 -5,1 C -4,2 C
05.12.2012 17:31 -2,2 C 80 % 1003,2 hPa 0,0 l/m 3,2 km/h (1 Bft) W 270 -5,2 C -2,2 C
05.12.2012 17:36 -2,2 C 80 % 1003,2 hPa 0,0 l/m 2,2 km/h (1 Bft) W 270 -5,2 C -2,2 C
05.12.2012 17:41 -2,4 C 80 % 1003,2 hPa 0,0 l/m 7,2 km/h (2 Bft) W-SW 247 -5,4 C -5,3 C
05.12.2012 17:46 -2,5 C 80 % 1003,1 hPa 0,0 l/m 2,2 km/h (1 Bft) W-SW 247 -5,5 C -2,5 C
05.12.2012 17:51 -2,6 C 80 % 1003,2 hPa 0,0 l/m 2,5 km/h (1 Bft) S-SW 202 -5,6 C -2,6 C
05.12.2012 17:56 -2,7 C 80 % 1003,1 hPa 0,0 l/m 1,8 km/h (1 Bft) SW 225 -5,7 C -2,7 C
05.12.2012 18:01 -2,8 C 80 % 1003,1 hPa 0,0 l/m 0,0 km/h (0 Bft) SW 225 -5,8 C -2,8 C
05.12.2012 18:06 -2,9 C 80 % 1003,2 hPa 0,0 l/m 2,5 km/h (1 Bft) W-SW 247 -5,9 C -2,9 C
05.12.2012 18:11 -3,1 C 81 % 1003,3 hPa 0,0 l/m 2,9 km/h (1 Bft) W-SW 247 -5,9 C -3,1 C
05.12.2012 18:16 -3,2 C 81 % 1003,1 hPa 0,0 l/m 0,0 km/h (0 Bft) W-SW 247 -6,0 C -3,2 C
05.12.2012 18:21 -3,2 C 81 % 1003,0 hPa 0,0 l/m 0,0 km/h (0 Bft) W-SW 247 -6,0 C -3,2 C
05.12.2012 18:26 -3,4 C 81 % 1003,3 hPa 0,0 l/m 1,8 km/h (1 Bft) W-SW 247 -6,2 C -3,4 C
05.12.2012 18:31 -3,5 C 81 % 1003,2 hPa 0,0 l/m 3,2 km/h (1 Bft) W 270 -6,3 C -3,5 C
05.12.2012 18:36 -3,5 C 81 % 1003,2 hPa 0,0 l/m 4,3 km/h (1 Bft) W-SW 247 -6,3 C -3,5 C
05.12.2012 18:41 -3,5 C 82 % 1003,3 hPa 0,0 l/m 0,0 km/h (0 Bft) W 270 -6,1 C -3,5 C
05.12.2012 18:46 -3,5 C 82 % 1003,3 hPa 0,0 l/m 0,0 km/h (0 Bft) W 270 -6,1 C -3,5 C
05.12.2012 18:51 -3,6 C 82 % 1003,1 hPa 0,0 l/m 0,0 km/h (0 Bft) W 270 -6,2 C -3,6 C
05.12.2012 18:56 -3,8 C 82 % 1003,2 hPa 0,0 l/m 0,0 km/h (0 Bft) W 270 -6,4 C -3,8 C
05.12.2012 19:01 -4,1 C 82 % 1003,2 hPa 0,0 l/m 1,4 km/h (1 Bft) W 270 -6,7 C -4,1 C
05.12.2012 19:06 -4,1 C 82 % 1003,1 hPa 0,0 l/m 2,2 km/h (1 Bft) S 180 -6,7 C -4,1 C
05.12.2012 19:11 -4,1 C 83 % 1003,2 hPa 0,0 l/m 0,0 km/h (0 Bft) S-SO 157 -6,5 C -4,1 C
05.12.2012 19:16 -4,1 C 83 % 1003,1 hPa 0,0 l/m 0,0 km/h (0 Bft) S-SO 157 -6,5 C -4,1 C
05.12.2012 19:21 -4,1 C 83 % 1003,1 hPa 0,0 l/m 2,2 km/h (1 Bft) S-SO 157 -6,5 C -4,1 C
05.12.2012 19:26 -4,1 C 83 % 1003,0 hPa 0,0 l/m 1,4 km/h (1 Bft) S-SO 157 -6,5 C -4,1 C
05.12.2012 19:31 -4,1 C 83 % 1003,0 hPa 0,0 l/m 2,5 km/h (1 Bft) S-SO 157 -6,5 C -4,1 C
05.12.2012 19:36 -4,1 C 83 % 1003,1 hPa 0,0 l/m 2,9 km/h (1 Bft) S-SO 157 -6,5 C -4,1 C
05.12.2012 19:41 -4,1 C 84 % 1003,1 hPa 0,0 l/m 4,0 km/h (1 Bft) SO 135 -6,4 C -4,1 C
05.12.2012 19:46 -4,1 C 84 % 1003,2 hPa 0,0 l/m 1,4 km/h (1 Bft) S-SO 157 -6,4 C -4,1 C
05.12.2012 19:51 -4,1 C 84 % 1003,1 hPa 0,0 l/m 3,2 km/h (1 Bft) S-SO 157 -6,4 C -4,1 C
05.12.2012 19:56 -4,1 C 84 % 1003,2 hPa 0,0 l/m 4,7 km/h (1 Bft) S-SO 157 -6,4 C -6,1 C
05.12.2012 20:01 -4,1 C 84 % 1003,1 hPa 0,0 l/m 5,0 km/h (1 Bft) SO 135 -6,4 C -6,2 C
05.12.2012 20:06 -4,1 C 85 % 1003,1 hPa 0,0 l/m 4,3 km/h (1 Bft) S-SO 157 -6,2 C -4,1 C
05.12.2012 20:11 -4,1 C 85 % 1003,2 hPa 0,0 l/m 4,3 km/h (1 Bft) SO 135 -6,2 C -4,1 C
05.12.2012 20:16 -4,1 C 85 % 1003,2 hPa 0,0 l/m 0,0 km/h (0 Bft) SO 135 -6,2 C -4,1 C
05.12.2012 20:21 -4,1 C 85 % 1003,1 hPa 0,0 l/m 3,2 km/h (1 Bft) SO 135 -6,2 C -4,1 C
05.12.2012 20:26 -4,1 C 85 % 1003,0 hPa 0,0 l/m 4,7 km/h (1 Bft) SO 135 -6,2 C -6,1 C
05.12.2012 20:31 -4,1 C 85 % 1002,9 hPa 0,0 l/m 6,1 km/h (2 Bft) SO 135 -6,2 C -6,8 C
05.12.2012 20:36 -4,1 C 85 % 1002,9 hPa 0,0 l/m 2,5 km/h (1 Bft) S-SO 157 -6,2 C -4,1 C
05.12.2012 20:41 -4,1 C 85 % 1002,8 hPa 0,0 l/m 1,8 km/h (1 Bft) S-SO 157 -6,2 C -4,1 C
05.12.2012 20:46 -4,1 C 85 % 1003,0 hPa 0,0 l/m 4,0 km/h (1 Bft) SO 135 -6,2 C -4,1 C
05.12.2012 20:51 -4,1 C 85 % 1002,8 hPa 0,0 l/m 2,9 km/h (1 Bft) SO 135 -6,2 C -4,1 C
05.12.2012 20:56 -4,1 C 86 % 1002,8 hPa 0,0 l/m 4,0 km/h (1 Bft) S-SO 157 -6,1 C -4,1 C
05.12.2012 21:01 -4,1 C 86 % 1002,8 hPa 0,0 l/m 4,3 km/h (1 Bft) S-SO 157 -6,1 C -4,1 C
05.12.2012 21:06 -4,1 C 86 % 1002,7 hPa 0,0 l/m 5,4 km/h (1 Bft) S-SO 157 -6,1 C -6,4 C
05.12.2012 21:11 -3,9 C 86 % 1002,8 hPa 0,0 l/m 2,2 km/h (1 Bft) S-SO 157 -5,9 C -3,9 C
05.12.2012 21:16 -3,9 C 86 % 1002,8 hPa 0,0 l/m 3,2 km/h (1 Bft) S-SO 157 -5,9 C -3,9 C
05.12.2012 21:21 -3,8 C 86 % 1002,9 hPa 0,0 l/m 0,0 km/h (0 Bft) S-SO 157 -5,8 C -3,8 C
05.12.2012 21:26 -3,7 C 87 % 1002,9 hPa 0,0 l/m 2,2 km/h (1 Bft) S-SO 157 -5,5 C -3,7 C
05.12.2012 21:31 -3,6 C 87 % 1002,9 hPa 0,0 l/m 2,5 km/h (1 Bft) S 180 -5,4 C -3,6 C
05.12.2012 21:36 -3,6 C 87 % 1002,8 hPa 0,0 l/m 2,5 km/h (1 Bft) S 180 -5,4 C -3,6 C
05.12.2012 21:41 -3,5 C 87 % 1002,7 hPa 0,0 l/m 4,0 km/h (1 Bft) SO 135 -5,3 C -3,5 C
05.12.2012 21:46 -3,4 C 87 % 1002,8 hPa 0,0 l/m 2,5 km/h (1 Bft) S-SO 157 -5,2 C -3,4 C
05.12.2012 21:51 -3,2 C 87 % 1002,9 hPa 0,0 l/m 3,2 km/h (1 Bft) SW 225 -5,0 C -3,2 C
05.12.2012 21:56 -3,2 C 87 % 1002,7 hPa 0,0 l/m 0,0 km/h (0 Bft) S 180 -5,0 C -3,2 C
05.12.2012 22:01 -3,1 C 87 % 1002,7 hPa 0,0 l/m 5,0 km/h (1 Bft) SW 225 -4,9 C -5,1 C
05.12.2012 22:06 -3,0 C 87 % 1002,8 hPa 0,0 l/m 5,4 km/h (1 Bft) S-SO 157 -4,9 C -5,2 C
05.12.2012 22:11 -3,0 C 87 % 1002,6 hPa 0,0 l/m 5,0 km/h (1 Bft) S 180 -4,9 C -5,0 C
05.12.2012 22:16 -2,9 C 87 % 1002,7 hPa 0,0 l/m 6,5 km/h (2 Bft) SW 225 -4,8 C -5,6 C
05.12.2012 22:21 -2,8 C 87 % 1002,5 hPa 0,0 l/m 5,8 km/h (2 Bft) S 180 -4,7 C -5,2 C
05.12.2012 22:26 -2,8 C 87 % 1002,6 hPa 0,0 l/m 4,0 km/h (1 Bft) S-SW 202 -4,7 C -2,8 C
05.12.2012 22:31 -2,7 C 87 % 1002,6 hPa 0,0 l/m 7,6 km/h (2 Bft) W-SW 247 -4,6 C -5,8 C
05.12.2012 22:36 -2,7 C 87 % 1002,7 hPa 0,0 l/m 6,1 km/h (2 Bft) S-SO 157 -4,6 C -5,2 C
05.12.2012 22:41 -2,7 C 87 % 1002,4 hPa 0,0 l/m 1,8 km/h (1 Bft) N-NO 22 -4,6 C -2,7 C
05.12.2012 22:46 -2,7 C 87 % 1002,4 hPa 0,0 l/m 12,2 km/h (2 Bft) S-SO 157 -4,6 C -7,1 C
05.12.2012 22:51 -2,6 C 88 % 1002,4 hPa 0,0 l/m 5,0 km/h (1 Bft) S-SW 202 -4,3 C -4,5 C
05.12.2012 22:56 -2,6 C 88 % 1002,3 hPa 0,0 l/m 2,9 km/h (1 Bft) S-SO 157 -4,3 C -2,6 C
05.12.2012 23:01 -2,5 C 88 % 1002,5 hPa 0,0 l/m 14,4 km/h (3 Bft) S-SW 202 -4,2 C -7,4 C
05.12.2012 23:06 -2,4 C 88 % 1002,6 hPa 0,0 l/m 6,1 km/h (2 Bft) W-SW 247 -4,1 C -4,8 C
05.12.2012 23:11 -2,4 C 88 % 1002,5 hPa 0,0 l/m 4,0 km/h (1 Bft) SW 225 -4,1 C -2,4 C
05.12.2012 23:16 -2,4 C 88 % 1002,4 hPa 0,0 l/m 6,8 km/h (2 Bft) S-SW 202 -4,1 C -5,1 C
05.12.2012 23:21 -2,2 C 88 % 1002,4 hPa 0,0 l/m 6,5 km/h (2 Bft) S 180 -3,9 C -4,8 C
05.12.2012 23:26 -2,2 C 88 % 1002,5 hPa 0,0 l/m 2,9 km/h (1 Bft) S-SO 157 -3,9 C -2,2 C
05.12.2012 23:31 -2,2 C 88 % 1002,2 hPa 0,0 l/m 9,4 km/h (2 Bft) S 180 -3,9 C -5,8 C
05.12.2012 23:36 -2,2 C 88 % 1002,3 hPa 0,0 l/m 6,5 km/h (2 Bft) S-SW 202 -3,9 C -4,8 C
05.12.2012 23:41 -2,1 C 88 % 1002,2 hPa 0,0 l/m 9,7 km/h (2 Bft) S-SW 202 -3,8 C -5,7 C
05.12.2012 23:46 -2,1 C 88 % 1002,3 hPa 0,0 l/m 6,1 km/h (2 Bft) SW 225 -3,8 C -4,5 C
05.12.2012 23:51 -2,1 C 87 % 1002,1 hPa 0,0 l/m 5,8 km/h (2 Bft) S 180 -4,0 C -4,4 C
05.12.2012 23:56 -2,0 C 87 % 1002,2 hPa 0,0 l/m 5,8 km/h (2 Bft) S-SW 202 -3,9 C -4,2 C
_ Min-Zeit 19:01 13:26 00:06 - 16:16 - - 19:01 09:01
Minimum _ -4,1 C 71 % 994,5 hPa - 0,0 km/h (0 Bft) - - -6,7 C -9,5 C
_ Max-Zeit 00:01 02:31 18:11 00:01 05:56 - - 00:01 00:11
Maximum _ 1,3 C 92 % 1003,3 hPa 0,0 l/m 23,8 km/h
NW (4 Bft)
- - -0,0 C 1,3 C
Durchschnitt _ -1,8 C 84 % 1000,5 hPa #0,0 l/m 7,9 km/h (2 Bft) W-NW - -4,2 C -4,2 C
(c) by David Heller